Terminal Aerodrome Forecast
Issued by NWS

Home | Current Version | Previous Version | Text Only | Print | Product List | Glossary On
Versions: 1 2 3 4 5 6 7 8 9 10 11 12 13 14 15 16
704
FTUS44 KLIX 281126
TAFMCB
TAF
KMCB 281126Z 2812/0112 17008KT P6SM BKN015 OVC025
     FM281600 18011G20KT P6SM BKN015
     FM281900 18013G21KT P6SM BKN040
     FM282000 18013G21KT P6SM SCT060
     FM010400 18011KT P6SM OVC008=

USA.gov is the U.S. government's official web portal to all federal, state and local government web resources and services.